Time;durP1;ratioP1;P1;durP2;ratioP2;P2;SDS_P1;SDS_P2;PMS_P1;PMS_P2;Temp;Humidity;BMP_temperature;BMP_pressure;BME280_temperature;BME280_humidity;BME280_pressure;Samples;Min_cycle;Max_cycle;Signal;HPM_P1;HPM_P2
2021/09/23 00:00:26;;;;;;;26.85;12.55;;;;;;;9.26;100.00;101369.41;2614884;36;20030;-41
2021/09/23 00:05:24;;;;;;;37.63;14.02;;;;;;;9.24;100.00;101357.34;2615568;31;20037;-44
2021/09/23 00:07:55;;;;;;;32.33;13.68;;;;;;;9.19;100.00;101347.81;2614674;36;20030;-41
2021/09/23 00:10:31;;;;;;;30.77;14.48;;;;;;;9.16;100.00;101352.81;2614725;36;20203;-46
2021/09/23 00:12:58;;;;;;;37.03;13.60;;;;;;;9.15;100.00;101352.72;2614765;31;20349;-46
2021/09/23 00:15:26;;;;;;;27.88;15.07;;;;;;;9.19;100.00;101359.72;2614914;36;20083;-41
2021/09/23 00:17:58;;;;;;;41.30;15.18;;;;;;;9.22;100.00;101348.75;2614348;36;20034;-40
2021/09/23 00:20:28;;;;;;;36.58;16.50;;;;;;;9.17;100.00;101338.34;2615582;31;20035;-41
2021/09/23 00:22:56;;;;;;;32.08;16.33;;;;;;;9.18;100.00;101328.16;2614773;36;20030;-45
2021/09/23 00:25:26;;;;;;;37.15;17.67;;;;;;;9.16;100.00;101340.03;2614741;36;20026;-45
2021/09/23 00:27:55;;;;;;;35.10;16.88;;;;;;;9.19;100.00;101331.59;2614784;36;20573;-46
2021/09/23 00:30:24;;;;;;;39.63;18.77;;;;;;;9.22;100.00;101323.19;2615061;31;20031;-41
2021/09/23 00:32:52;;;;;;;37.85;17.42;;;;;;;9.19;100.00;101309.47;2615093;31;20058;-41
2021/09/23 00:35:20;;;;;;;33.72;18.63;;;;;;;9.22;100.00;101316.41;2614536;31;20031;-41
2021/09/23 00:37:48;;;;;;;41.78;20.83;;;;;;;9.27;100.00;101312.34;2614451;36;20034;-41
2021/09/23 00:40:17;;;;;;;42.30;21.02;;;;;;;9.30;100.00;101306.50;2614840;36;20037;-42
2021/09/23 00:42:47;;;;;;;55.97;23.30;;;;;;;9.29;100.00;101305.63;2614458;36;20038;-42
2021/09/23 00:45:20;;;;;;;51.03;24.33;;;;;;;9.43;100.00;101306.19;2614310;36;20033;-41
2021/09/23 00:47:49;;;;;;;62.25;27.98;;;;;;;9.49;100.00;101301.31;2614208;36;20035;-44
2021/09/23 00:50:18;;;;;;;49.65;25.83;;;;;;;9.47;100.00;101305.47;2615010;31;20141;-42
2021/09/23 00:52:45;;;;;;;48.42;25.58;;;;;;;9.45;100.00;101299.44;2614382;31;20036;-41
2021/09/23 00:55:12;;;;;;;46.90;25.70;;;;;;;9.44;100.00;101290.91;2614456;31;20031;-42
2021/09/23 00:57:40;;;;;;;46.33;26.35;;;;;;;9.47;100.00;101291.81;2614219;36;20034;-45
2021/09/23 01:00:11;;;;;;;48.38;26.75;;;;;;;9.44;100.00;101288.34;2615107;31;20225;-46
2021/09/23 01:02:38;;;;;;;49.08;25.40;;;;;;;9.39;100.00;101278.75;2615981;31;20037;-46
2021/09/23 01:05:07;;;;;;;49.95;26.67;;;;;;;9.39;100.00;101282.19;2615692;31;20051;-43
2021/09/23 01:07:35;;;;;;;48.75;27.15;;;;;;;9.36;100.00;101279.50;2613993;31;20030;-43
2021/09/23 01:10:03;;;;;;;51.85;26.35;;;;;;;9.30;100.00;101275.84;2614593;36;20038;-42
2021/09/23 01:12:30;;;;;;;52.40;27.10;;;;;;;9.31;100.00;101275.88;2614024;36;20038;-44
2021/09/23 01:14:58;;;;;;;44.83;25.42;;;;;;;9.26;100.00;101277.38;2614117;36;20030;-45
2021/09/23 01:17:25;;;;;;;45.33;26.27;;;;;;;9.24;100.00;101281.53;2614180;36;20035;-43
2021/09/23 01:19:53;;;;;;;46.75;26.17;;;;;;;9.17;100.00;101282.13;2614347;36;20029;-41
2021/09/23 01:22:20;;;;;;;54.42;27.98;;;;;;;9.18;100.00;101278.75;2615110;31;20041;-41
2021/09/23 01:24:48;;;;;;;54.63;26.45;;;;;;;9.14;100.00;101267.53;2614421;31;20037;-42
2021/09/23 01:27:15;;;;;;;52.78;29.00;;;;;;;9.14;100.00;101259.88;2613864;36;20322;-43
2021/09/23 01:29:43;;;;;;;53.20;30.25;;;;;;;9.18;100.00;101264.28;2614723;31;20073;-41
2021/09/23 01:32:11;;;;;;;62.22;30.77;;;;;;;9.16;100.00;101257.38;2614612;31;20035;-42
2021/09/23 01:34:42;;;;;;;59.75;32.40;;;;;;;9.16;100.00;101259.94;2614392;31;20034;-44
2021/09/23 01:37:09;;;;;;;58.47;31.48;;;;;;;9.13;100.00;101241.94;2614338;36;20462;-44
2021/09/23 01:39:37;;;;;;;67.13;33.05;;;;;;;9.14;100.00;101234.31;2614464;31;20030;-41
2021/09/23 01:42:05;;;;;;;70.20;34.95;;;;;;;9.18;100.00;101227.66;2614249;31;20034;-45
2021/09/23 01:44:33;;;;;;;58.63;33.58;;;;;;;9.16;100.00;101222.50;2615058;31;20536;-41
2021/09/23 01:47:01;;;;;;;63.08;35.42;;;;;;;9.14;100.00;101230.88;2614024;36;20026;-48
2021/09/23 01:49:29;;;;;;;67.05;35.45;;;;;;;9.13;100.00;101214.69;2614209;36;20026;-42
2021/09/23 01:51:56;;;;;;;70.80;35.88;;;;;;;9.12;100.00;101206.97;2615250;31;20542;-41
2021/09/23 01:54:24;;;;;;;79.18;40.33;;;;;;;9.16;100.00;101207.16;2615269;31;20466;-44
2021/09/23 01:56:54;;;;;;;83.53;40.25;;;;;;;9.18;100.00;101202.09;2614554;31;20058;-42
2021/09/23 01:59:23;;;;;;;80.45;43.85;;;;;;;9.27;100.00;101199.03;2614996;31;20031;-41
2021/09/23 02:01:50;;;;;;;86.43;42.00;;;;;;;9.29;100.00;101194.84;2615478;31;20038;-42
2021/09/23 02:04:18;;;;;;;89.63;43.70;;;;;;;9.30;100.00;101189.81;2614634;31;20458;-41
2021/09/23 02:06:45;;;;;;;103.47;47.55;;;;;;;9.34;100.00;101190.81;2614752;31;20030;-46
2021/09/23 02:09:13;;;;;;;87.25;42.70;;;;;;;9.28;100.00;101193.97;2613720;36;20030;-44
2021/09/23 02:11:40;;;;;;;89.53;43.30;;;;;;;9.29;100.00;101205.06;2613841;36;20035;-47
2021/09/23 02:14:08;;;;;;;77.05;43.05;;;;;;;9.23;100.00;101197.16;2615632;31;20030;-41
2021/09/23 02:16:35;;;;;;;82.20;42.03;;;;;;;9.21;100.00;101194.56;2614265;31;20678;-41
2021/09/23 02:19:03;;;;;;;94.35;47.22;;;;;;;9.28;100.00;101196.53;2614194;36;20038;-41
2021/09/23 02:21:30;;;;;;;84.95;45.15;;;;;;;9.25;100.00;101204.09;2614966;36;20118;-47
2021/09/23 02:23:57;;;;;;;94.47;45.63;;;;;;;9.21;100.00;101198.81;2615005;31;20030;-41
2021/09/23 02:26:25;;;;;;;102.05;49.78;;;;;;;9.24;100.00;101194.66;2614630;36;20031;-42
2021/09/23 02:28:52;;;;;;;100.53;48.63;;;;;;;9.23;100.00;101176.72;2614915;31;20031;-41
2021/09/23 02:31:19;;;;;;;102.95;50.40;;;;;;;9.28;100.00;101175.22;2615508;31;20041;-44
2021/09/23 02:33:46;;;;;;;92.68;49.15;;;;;;;9.29;100.00;101174.41;2615125;31;20042;-44
2021/09/23 02:36:13;;;;;;;98.93;47.90;;;;;;;9.26;100.00;101172.63;2614649;36;20458;-46
2021/09/23 02:38:40;;;;;;;102.03;47.38;;;;;;;9.21;100.00;101183.47;2614958;36;20034;-41
2021/09/23 02:41:08;;;;;;;97.95;46.75;;;;;;;9.23;100.00;101169.94;2614718;36;20034;-41
2021/09/23 02:43:35;;;;;;;89.30;46.20;;;;;;;9.17;100.00;101174.81;2615041;36;20038;-42
2021/09/23 02:46:02;;;;;;;96.82;47.03;;;;;;;9.16;100.00;101170.53;2615688;31;20062;-43
2021/09/23 02:48:30;;;;;;;94.90;48.38;;;;;;;9.08;100.00;101165.09;2617308;31;20535;-41
2021/09/23 02:50:57;;;;;;;93.10;46.78;;;;;;;9.09;100.00;101154.06;2614848;36;20041;-41
2021/09/23 02:53:24;;;;;;;93.72;48.35;;;;;;;9.09;100.00;101159.16;2614723;36;20026;-41
2021/09/23 02:55:53;;;;;;;98.15;49.83;;;;;;;9.12;100.00;101146.53;2614777;36;20030;-45
2021/09/23 02:58:20;;;;;;;100.97;48.67;;;;;;;9.11;100.00;101143.94;2614731;36;20030;-44
2021/09/23 03:00:47;;;;;;;102.10;50.00;;;;;;;9.18;100.00;101135.66;2614379;36;20029;-42
2021/09/23 03:03:14;;;;;;;105.18;50.20;;;;;;;9.14;100.00;101128.69;2615426;31;20474;-42
2021/09/23 03:05:43;;;;;;;101.30;49.28;;;;;;;9.12;100.00;101123.53;2615162;31;20058;-45
2021/09/23 03:08:11;;;;;;;100.43;47.83;;;;;;;9.10;100.00;101129.38;2614469;36;20031;-41
2021/09/23 03:10:39;;;;;;;101.18;49.35;;;;;;;9.13;100.00;101121.84;2615568;31;20038;-47
2021/09/23 03:13:06;;;;;;;103.28;49.45;;;;;;;9.09;100.00;101118.28;2615656;31;20042;-42
2021/09/23 03:15:34;;;;;;;112.15;50.67;;;;;;;9.07;100.00;101116.50;2614840;31;20034;-46
2021/09/23 03:18:02;;;;;;;107.40;51.42;;;;;;;9.11;100.00;101113.25;2614393;36;20041;-42
2021/09/23 03:20:29;;;;;;;96.10;49.08;;;;;;;9.06;100.00;101102.88;2615250;36;20494;-45
2021/09/23 03:22:57;;;;;;;109.25;50.35;;;;;;;9.06;100.00;101100.31;2615073;31;20035;-44
2021/09/23 03:25:24;;;;;;;100.88;49.13;;;;;;;9.01;100.00;101088.16;2615362;31;20553;-48
2021/09/23 03:27:53;;;;;;;111.60;50.55;;;;;;;9.01;100.00;101094.13;2614421;31;20585;-44
2021/09/23 03:30:20;;;;;;;105.45;52.47;;;;;;;9.05;100.00;101097.69;2614697;31;20349;-48
2021/09/23 03:32:47;;;;;;;114.90;53.65;;;;;;;9.03;100.00;101091.66;2614496;36;20054;-44
2021/09/23 03:35:14;;;;;;;112.20;53.58;;;;;;;9.02;100.00;101095.91;2614541;36;20457;-41
2021/09/23 03:37:42;;;;;;;116.70;55.00;;;;;;;9.03;100.00;101096.78;2614381;36;20030;-44
2021/09/23 03:40:09;;;;;;;117.25;54.25;;;;;;;9.00;100.00;101096.63;2614566;31;20030;-44
2021/09/23 03:42:37;;;;;;;119.32;53.95;;;;;;;9.00;100.00;101096.63;2614990;31;20034;-41
2021/09/23 03:45:06;;;;;;;127.28;54.85;;;;;;;9.01;100.00;101085.59;2614502;36;20042;-42
2021/09/23 03:47:34;;;;;;;125.07;57.25;;;;;;;8.98;100.00;101082.94;2615635;31;20474;-45
2021/09/23 03:50:02;;;;;;;133.00;57.80;;;;;;;8.99;100.00;101079.56;2614799;36;20113;-41
2021/09/23 03:52:29;;;;;;;127.40;56.63;;;;;;;8.97;100.00;101076.06;2614363;31;20074;-48
2021/09/23 03:54:56;;;;;;;127.32;56.90;;;;;;;8.97;100.00;101069.31;2614481;31;20111;-46
2021/09/23 03:57:23;;;;;;;136.25;57.22;;;;;;;8.95;100.00;101077.72;2614438;36;20220;-44
2021/09/23 03:59:50;;;;;;;145.50;60.45;;;;;;;8.98;100.00;101077.84;2614525;36;20594;-43
2021/09/23 04:02:18;;;;;;;136.38;59.83;;;;;;;9.00;100.00;101071.09;2614771;36;20038;-42
2021/09/23 04:04:46;;;;;;;142.15;62.95;;;;;;;8.98;100.00;101072.72;2614574;36;20041;-41
2021/09/23 04:07:14;;;;;;;153.02;62.72;;;;;;;8.96;100.00;101069.22;2614663;31;20034;-41
2021/09/23 04:09:43;;;;;;;149.13;63.60;;;;;;;8.96;100.00;101075.22;2614802;36;20053;-41
2021/09/23 04:12:12;;;;;;;148.35;63.30;;;;;;;8.94;100.00;101066.63;2614471;36;20670;-41
2021/09/23 04:14:40;;;;;;;148.70;63.20;;;;;;;8.92;100.00;101061.47;2614974;31;20322;-46
2021/09/23 04:17:07;;;;;;;144.23;62.20;;;;;;;8.93;100.00;101057.22;2615092;36;20041;-41
2021/09/23 04:19:34;;;;;;;162.65;66.50;;;;;;;8.94;100.00;101058.97;2614846;31;20034;-47
2021/09/23 04:22:03;;;;;;;151.77;62.45;;;;;;;8.94;100.00;101066.63;2614942;31;20037;-43
2021/09/23 04:24:37;;;;;;;156.65;64.53;;;;;;;8.96;100.00;101077.75;2613644;36;20050;-45
2021/09/23 04:27:05;;;;;;;163.63;64.20;;;;;;;8.92;100.00;101070.81;2614247;36;20030;-42
2021/09/23 04:29:39;;;;;;;156.75;67.18;;;;;;;8.92;100.00;101068.28;2614699;31;20505;-45
2021/09/23 04:32:17;;;;;;;161.70;63.75;;;;;;;8.93;100.00;101067.44;2615213;36;20450;-41
2021/09/23 04:34:47;;;;;;;151.23;63.78;;;;;;;8.88;100.00;101062.16;2614421;36;20034;-41
2021/09/23 04:37:15;;;;;;;152.35;65.60;;;;;;;8.89;100.00;101050.25;2613760;36;20596;-44
2021/09/23 04:39:44;;;;;;;166.15;67.07;;;;;;;8.93;100.00;101052.13;2616616;31;20090;-43
2021/09/23 04:42:11;;;;;;;170.52;69.25;;;;;;;8.93;100.00;101035.13;2615401;36;20034;-46
2021/09/23 04:44:39;;;;;;;169.05;68.68;;;;;;;8.87;100.00;101045.09;2615240;31;20026;-41
2021/09/23 04:47:06;;;;;;;160.77;68.03;;;;;;;8.87;100.00;101040.00;2615131;31;20090;-44
2021/09/23 04:49:33;;;;;;;162.60;68.55;;;;;;;8.93;100.00;101024.91;2614752;36;20042;-41
2021/09/23 04:52:00;;;;;;;167.95;67.47;;;;;;;8.89;100.00;101028.16;2614958;36;20038;-45
2021/09/23 04:54:28;;;;;;;161.93;66.43;;;;;;;8.88;100.00;101021.31;2614905;31;20453;-46
2021/09/23 04:56:56;;;;;;;163.35;69.85;;;;;;;8.96;100.00;101015.59;2614199;36;20554;-42
2021/09/23 04:59:23;;;;;;;170.65;70.32;;;;;;;8.90;100.00;101008.59;2614360;36;20030;-41
2021/09/23 05:01:50;;;;;;;166.50;71.15;;;;;;;8.90;100.00;101001.78;2614854;31;20050;-45
2021/09/23 05:04:18;;;;;;;173.27;69.82;;;;;;;8.91;100.00;101002.66;2614500;36;20023;-46
2021/09/23 05:06:45;;;;;;;166.20;68.20;;;;;;;8.95;100.00;100998.53;2614378;31;20038;-42
2021/09/23 05:09:12;;;;;;;162.70;67.30;;;;;;;8.97;100.00;100995.25;2614567;36;20041;-41
2021/09/23 05:11:39;;;;;;;184.73;73.20;;;;;;;8.97;100.00;100996.91;2614641;31;20045;-47
2021/09/23 05:14:06;;;;;;;170.57;72.38;;;;;;;9.03;100.00;101007.38;2614782;31;20030;-45
2021/09/23 05:16:34;;;;;;;166.68;72.03;;;;;;;9.07;100.00;101009.22;2614480;31;20340;-43
2021/09/23 05:19:01;;;;;;;165.10;68.22;;;;;;;9.11;100.00;101016.19;2614275;36;20034;-45
2021/09/23 05:21:28;;;;;;;164.65;70.63;;;;;;;9.14;100.00;101019.69;2616342;31;20451;-41
2021/09/23 05:23:55;;;;;;;158.65;67.53;;;;;;;9.12;100.00;101007.69;2614425;36;20031;-43
2021/09/23 05:26:26;;;;;;;160.23;70.32;;;;;;;9.12;100.00;101002.59;2614177;36;20030;-47
2021/09/23 05:28:56;;;;;;;156.75;67.85;;;;;;;9.12;100.00;101012.81;2614657;31;20023;-45
2021/09/23 05:31:23;;;;;;;149.60;66.75;;;;;;;9.16;100.00;101002.75;2614280;36;22179;-46
2021/09/23 05:33:51;;;;;;;157.38;70.13;;;;;;;9.20;100.00;100993.53;2614190;31;20605;-42
2021/09/23 05:36:22;;;;;;;162.35;66.80;;;;;;;9.25;100.00;101001.34;2614107;36;20125;-43
2021/09/23 05:38:51;;;;;;;143.80;65.53;;;;;;;9.29;100.00;100996.41;2614730;31;20038;-46
2021/09/23 05:41:19;;;;;;;144.82;66.80;;;;;;;9.34;100.00;100992.34;2614579;36;20038;-43
2021/09/23 05:43:46;;;;;;;145.98;66.00;;;;;;;9.41;100.00;100988.28;2614644;31;20570;-43
2021/09/23 05:46:13;;;;;;;143.77;64.43;;;;;;;9.44;100.00;100989.28;2614313;36;20030;-52
2021/09/23 05:48:42;;;;;;;140.38;65.18;;;;;;;9.48;100.00;100979.16;2614068;36;20601;-43
2021/09/23 05:51:09;;;;;;;135.32;62.17;;;;;;;9.54;100.00;100979.38;2613941;36;20037;-43
2021/09/23 05:53:37;;;;;;;128.60;64.32;;;;;;;9.60;100.00;100980.44;2613783;36;20034;-45
2021/09/23 05:56:06;;;;;;;127.63;62.35;;;;;;;9.67;100.00;100979.84;2612126;31;20038;-45
2021/09/23 05:58:36;;;;;;;122.15;59.35;;;;;;;9.78;100.00;100987.00;2613961;36;20050;-43
2021/09/23 06:01:03;;;;;;;104.18;55.72;;;;;;;9.85;100.00;100986.41;2614307;36;20034;-47
2021/09/23 06:03:51;;;;;;;104.28;53.88;;;;;;;10.08;100.00;100989.72;2577850;36;2004417;-44
2021/09/23 06:06:21;;;;;;;89.22;51.08;;;;;;;11.39;100.00;100988.53;2613698;36;20030;-43
2021/09/23 06:08:49;;;;;;;71.10;43.22;;;;;;;12.23;100.00;100984.69;2614382;36;20057;-47
2021/09/23 06:11:16;;;;;;;57.55;36.90;;;;;;;12.62;100.00;100994.16;2614068;31;20030;-44
2021/09/23 06:13:46;;;;;;;47.55;31.88;;;;;;;12.46;100.00;100995.50;2614094;36;20146;-42
2021/09/23 06:16:14;;;;;;;45.58;31.80;;;;;;;11.84;100.00;100988.03;2614805;36;20530;-47
2021/09/23 06:18:41;;;;;;;46.13;31.35;;;;;;;11.59;100.00;100995.88;2614157;36;20037;-47
2021/09/23 06:21:08;;;;;;;48.28;32.35;;;;;;;11.32;100.00;100990.88;2615056;31;20030;-41
2021/09/23 06:23:36;;;;;;;49.47;31.25;;;;;;;11.37;100.00;100999.56;2614243;36;20045;-43
2021/09/23 06:26:04;;;;;;;45.88;32.38;;;;;;;12.33;100.00;100996.91;2614425;36;20570;-42
2021/09/23 06:28:38;;;;;;;45.70;30.48;;;;;;;12.47;100.00;100987.81;2614311;31;20037;-44
2021/09/23 06:31:06;;;;;;;41.75;29.20;;;;;;;12.33;100.00;100984.06;2578445;31;2004657;-44
2021/09/23 06:33:33;;;;;;;45.92;31.63;;;;;;;12.35;100.00;100982.41;2614588;36;20814;-45
2021/09/23 06:36:01;;;;;;;48.90;29.60;;;;;;;12.52;100.00;100987.91;2613778;36;20571;-42
2021/09/23 06:38:31;;;;;;;48.08;30.88;;;;;;;12.08;100.00;100972.34;2614117;36;20568;-45
2021/09/23 06:40:59;;;;;;;46.65;30.55;;;;;;;12.45;100.00;100975.78;2613669;36;20063;-45
2021/09/23 06:43:26;;;;;;;46.38;29.77;;;;;;;13.65;100.00;100973.94;2614354;31;20034;-43
2021/09/23 06:45:53;;;;;;;42.58;29.00;;;;;;;15.08;100.00;100970.06;2613512;36;20566;-40
2021/09/23 06:48:20;;;;;;;39.60;25.88;;;;;;;14.39;100.00;100965.69;2615331;31;20030;-45
2021/09/23 06:50:47;;;;;;;37.13;27.58;;;;;;;13.58;100.00;100969.50;2615048;31;20400;-42
2021/09/23 06:53:15;;;;;;;40.58;27.83;;;;;;;13.17;100.00;100973.03;2614309;31;20034;-42
2021/09/23 06:55:42;;;;;;;41.92;29.13;;;;;;;13.12;100.00;100966.91;2614109;31;20590;-43
2021/09/23 06:58:09;;;;;;;43.47;29.17;;;;;;;12.92;100.00;100952.81;2613969;36;20031;-42
2021/09/23 07:00:40;;;;;;;49.35;29.27;;;;;;;12.61;100.00;100952.16;2615758;31;20605;-42
2021/09/23 07:03:07;;;;;;;50.65;30.48;;;;;;;12.35;100.00;100949.03;2614796;31;20023;-42
2021/09/23 07:05:35;;;;;;;49.00;30.23;;;;;;;12.29;100.00;100941.16;2614603;36;20128;-47
2021/09/23 07:08:02;;;;;;;53.13;32.67;;;;;;;12.53;100.00;100951.16;2615108;36;20303;-42
2021/09/23 07:10:29;;;;;;;47.88;31.75;;;;;;;12.46;100.00;100944.13;2614870;36;20030;-45
2021/09/23 07:12:57;;;;;;;52.65;32.42;;;;;;;12.35;100.00;100935.31;2615003;36;20157;-47
2021/09/23 07:15:24;;;;;;;49.65;31.60;;;;;;;12.59;100.00;100930.72;2615369;31;20125;-45
2021/09/23 07:17:52;;;;;;;47.65;31.35;;;;;;;12.72;100.00;100930.13;2615614;31;20027;-47
2021/09/23 07:20:19;;;;;;;48.67;31.92;;;;;;;12.80;100.00;100924.28;2615208;31;20034;-50
2021/09/23 07:22:46;;;;;;;47.13;32.25;;;;;;;12.83;100.00;100919.22;2614958;36;20031;-43
2021/09/23 07:25:13;;;;;;;46.65;30.23;;;;;;;12.77;100.00;100927.66;2615348;31;20660;-43
2021/09/23 18:02:31;;;;;;;4.45;3.05;;;;;;;17.89;69.99;99990.88;2612939;36;20041;-52
2021/09/23 18:04:59;;;;;;;7.60;3.28;;;;;;;17.86;70.43;99994.38;2614030;36;20677;-48
2021/09/23 18:07:26;;;;;;;10.52;3.67;;;;;;;17.84;70.88;99985.78;2613619;36;20023;-52
2021/09/23 18:09:53;;;;;;;5.47;3.67;;;;;;;17.83;71.54;99983.19;2613225;31;20039;-52
2021/09/23 18:12:20;;;;;;;7.60;2.95;;;;;;;17.85;71.82;99987.47;2613191;31;20054;-53
2021/09/23 18:14:53;;;;;;;6.25;3.85;;;;;;;17.89;71.65;99989.16;2614332;36;20027;-54
2021/09/23 18:17:21;;;;;;;8.77;3.78;;;;;;;17.92;72.00;99991.66;2613967;31;20039;-51
2021/09/23 18:19:48;;;;;;;6.63;3.90;;;;;;;17.90;72.68;99988.25;2614240;36;20030;-51
2021/09/23 18:22:16;;;;;;;8.77;3.83;;;;;;;17.88;72.60;100000.34;2613526;36;20038;-55
2021/09/23 18:24:44;;;;;;;6.68;3.00;;;;;;;17.84;73.27;99990.97;2614010;31;20055;-53
2021/09/23 18:27:11;;;;;;;8.95;3.10;;;;;;;17.83;73.36;99997.00;2613434;36;20030;-50
2021/09/23 18:29:38;;;;;;;5.85;3.58;;;;;;;17.82;73.28;100000.47;2613877;31;20033;-56
2021/09/23 18:32:06;;;;;;;6.28;3.22;;;;;;;17.78;74.37;100004.81;2614724;31;20037;-51
2021/09/23 18:34:33;;;;;;;9.00;2.83;;;;;;;17.77;74.46;100002.28;2614101;36;20034;-46
2021/09/23 18:37:01;;;;;;;4.93;2.70;;;;;;;17.75;74.53;100001.44;2613796;36;20037;-48
2021/09/23 18:39:28;;;;;;;8.27;3.08;;;;;;;17.73;74.90;100004.03;2615779;31;20136;-49
2021/09/23 18:41:55;;;;;;;8.02;2.72;;;;;;;17.73;75.36;99997.97;2614214;31;20035;-49
2021/09/23 18:44:22;;;;;;;6.93;2.88;;;;;;;17.67;75.33;99980.81;2615846;31;20441;-45
2021/09/23 18:46:49;;;;;;;6.25;2.53;;;;;;;17.65;75.54;99979.09;2614377;31;20429;-46
2021/09/23 18:49:17;;;;;;;8.13;3.35;;;;;;;17.67;75.72;99985.13;2614044;31;20151;-50
2021/09/23 18:51:44;;;;;;;7.70;2.80;;;;;;;17.63;76.00;99979.13;2614048;31;20697;-52
2021/09/23 18:54:11;;;;;;;9.63;3.10;;;;;;;17.59;77.42;99985.22;2613668;31;20030;-50
2021/09/23 18:56:38;;;;;;;5.82;2.70;;;;;;;17.54;77.27;99971.50;2613806;36;20459;-51
2021/09/23 18:59:05;;;;;;;9.02;3.13;;;;;;;17.59;77.57;99981.78;2615034;31;20050;-55
2021/09/23 19:01:32;;;;;;;5.43;3.00;;;;;;;17.55;77.59;99980.97;2613324;36;20026;-55
2021/09/23 19:04:00;;;;;;;12.43;3.60;;;;;;;17.56;78.08;99977.50;2614520;31;20027;-50
2021/09/23 19:06:28;;;;;;;6.20;3.03;;;;;;;17.56;78.38;99985.25;2614618;31;20038;-49
2021/09/23 19:08:58;;;;;;;8.80;2.90;;;;;;;17.50;79.58;99980.19;2614415;36;20037;-55
2021/09/23 19:11:25;;;;;;;9.57;3.45;;;;;;;17.48;79.73;99977.63;2614308;36;20031;-52
2021/09/23 19:13:52;;;;;;;8.05;3.58;;;;;;;17.48;79.41;99975.03;2614157;36;20031;-49
2021/09/23 19:16:19;;;;;;;8.02;3.20;;;;;;;17.50;78.79;99980.19;2614406;36;20030;-50
2021/09/23 19:18:47;;;;;;;7.07;2.97;;;;;;;17.48;79.34;99985.41;2614983;31;20039;-51
2021/09/23 19:21:14;;;;;;;8.60;3.03;;;;;;;17.55;78.96;99975.78;2614354;36;20034;-53
2021/09/23 19:23:44;;;;;;;5.13;2.95;;;;;;;17.50;79.73;99985.38;2614497;31;20038;-51
2021/09/23 19:26:12;;;;;;;8.57;3.10;;;;;;;17.51;79.64;100013.81;2614732;31;20129;-49
2021/09/23 19:28:39;;;;;;;5.85;2.80;;;;;;;17.50;80.23;99975.88;2614010;36;20041;-48
2021/09/23 19:31:06;;;;;;;3.38;3.08;;;;;;;17.43;82.49;99997.53;2614528;36;20551;-48
2021/09/23 19:33:33;;;;;;;5.80;3.45;;;;;;;17.26;87.15;100008.09;2614792;31;20064;-53
2021/09/23 19:36:01;;;;;;;7.25;3.72;;;;;;;17.03;92.56;100000.63;2614859;36;20578;-51
2021/09/23 19:38:29;;;;;;;4.30;3.42;;;;;;;16.81;98.38;100009.50;2614142;36;20228;-52
2021/09/23 19:40:57;;;;;;;9.27;3.88;;;;;;;16.60;100.00;100001.94;2615657;31;20581;-49
2021/09/23 19:43:26;;;;;;;10.85;3.40;;;;;;;16.52;100.00;100012.34;2615793;31;20055;-55
2021/09/23 19:45:53;;;;;;;9.07;3.65;;;;;;;16.47;100.00;100006.38;2615709;31;20121;-55
2021/09/23 19:48:21;;;;;;;6.22;4.13;;;;;;;16.37;100.00;100010.78;2612783;36;20050;-53
2021/09/23 19:50:48;;;;;;;7.60;4.20;;;;;;;16.34;100.00;100035.78;2613712;36;20061;-53
2021/09/23 19:53:15;;;;;;;6.38;4.43;;;;;;;16.07;100.00;100057.50;2613249;36;20033;-54
2021/09/23 19:55:42;;;;;;;7.03;5.45;;;;;;;15.47;100.00;100075.88;2614229;31;20041;-53
2021/09/23 19:58:11;;;;;;;8.52;4.57;;;;;;;14.86;100.00;100082.06;2615062;36;20449;-52
2021/09/23 20:00:39;;;;;;;7.70;4.35;;;;;;;14.60;100.00;100084.66;2614759;36;20034;-54
2021/09/23 20:03:11;;;;;;;7.10;4.47;;;;;;;14.41;100.00;100064.88;2614456;36;20034;-50
2021/09/23 20:05:39;;;;;;;7.75;4.38;;;;;;;14.23;100.00;100035.69;2614216;36;20038;-53
2021/09/23 20:08:10;;;;;;;8.00;4.13;;;;;;;14.15;100.00;100041.72;2578584;31;2004560;-53
2021/09/23 20:10:38;;;;;;;8.77;3.55;;;;;;;14.00;100.00;100050.25;2614301;31;20541;-51
2021/09/23 20:13:05;;;;;;;3.33;1.83;;;;;;;13.91;100.00;100057.97;2614695;31;20031;-51
2021/09/23 20:15:32;;;;;;;6.03;2.78;;;;;;;13.83;100.00;100060.56;2616241;31;20273;-52
2021/09/23 20:18:00;;;;;;;4.88;1.73;;;;;;;13.75;100.00;100051.94;2614243;31;20546;-47
2021/09/23 20:20:27;;;;;;;6.05;2.20;;;;;;;13.71;100.00;100073.38;2613976;36;20034;-55
2021/09/23 20:22:55;;;;;;;6.13;1.83;;;;;;;13.72;100.00;100067.38;2613823;36;20031;-47
2021/09/23 20:25:22;;;;;;;8.63;1.65;;;;;;;13.70;100.00;100067.38;2614200;36;20053;-52
2021/09/23 20:27:49;;;;;;;5.13;2.03;;;;;;;13.76;100.00;100074.25;2614313;36;20147;-52
2021/09/23 20:30:17;;;;;;;6.30;1.55;;;;;;;13.79;100.00;100079.41;2614708;31;20041;-47
2021/09/23 20:32:44;;;;;;;5.72;1.65;;;;;;;13.81;100.00;100087.97;2614280;31;20037;-54
2021/09/23 20:35:12;;;;;;;10.70;2.22;;;;;;;13.81;100.00;100097.41;2614278;31;20054;-55
2021/09/23 20:37:43;;;;;;;6.05;1.90;;;;;;;13.89;100.00;100099.16;2614463;31;20488;-53
2021/09/23 20:40:11;;;;;;;6.20;1.52;;;;;;;13.90;100.00;100098.28;2614421;31;20031;-47
2021/09/23 20:42:38;;;;;;;5.80;1.30;;;;;;;13.93;100.00;100082.88;2614226;36;20030;-53
2021/09/23 20:45:06;;;;;;;4.78;2.00;;;;;;;13.98;100.00;100086.31;2615068;36;20546;-49
2021/09/23 20:47:52;;;;;;;5.80;1.50;;;;;;;14.02;100.00;100098.34;2578381;36;2004392;-51
2021/09/23 20:50:21;;;;;;;14.98;2.00;;;;;;;14.04;100.00;100103.47;2614299;31;20039;-49
2021/09/23 20:52:48;;;;;;;9.10;2.35;;;;;;;14.15;100.00;100100.94;2614436;31;20038;-52
2021/09/23 20:55:16;;;;;;;9.10;2.28;;;;;;;14.17;100.00;100092.34;2613926;36;20104;-53
2021/09/23 20:58:06;;;;;;;8.52;2.30;;;;;;;14.16;100.00;100102.66;2614016;36;20030;-53
2021/09/23 21:00:35;;;;;;;12.23;2.00;;;;;;;14.24;100.00;100106.97;2614307;36;20026;-53
2021/09/23 21:03:04;;;;;;;7.45;1.90;;;;;;;14.19;100.00;100100.94;2615451;31;20459;-56
2021/09/23 21:05:32;;;;;;;5.60;2.10;;;;;;;14.21;100.00;100118.97;2614542;36;20041;-55
2021/09/23 21:07:59;;;;;;;8.75;2.20;;;;;;;14.15;100.00;100119.81;2614190;36;20026;-54
2021/09/23 21:10:27;;;;;;;8.13;1.95;;;;;;;14.19;100.00;100105.22;2614893;31;20073;-52
2021/09/23 21:12:54;;;;;;;9.90;1.70;;;;;;;14.15;100.00;100113.81;2615664;31;20439;-53
2021/09/23 21:15:21;;;;;;;8.90;2.00;;;;;;;14.16;100.00;100102.66;2614329;36;20031;-51
2021/09/23 21:17:48;;;;;;;7.05;2.28;;;;;;;14.15;100.00;100106.09;2614645;31;20030;-57
2021/09/23 21:20:16;;;;;;;6.22;1.80;;;;;;;14.14;100.00;100112.97;2615946;31;20034;-53
2021/09/23 21:22:43;;;;;;;7.10;2.20;;;;;;;14.09;100.00;100116.38;2614647;31;20027;-52
2021/09/23 21:25:10;;;;;;;8.35;1.90;;;;;;;14.03;100.00;100112.06;2614342;36;20030;-56
2021/09/23 21:27:38;;;;;;;10.95;2.15;;;;;;;14.07;100.00;100110.38;2615118;36;20361;-53
2021/09/23 21:30:06;;;;;;;8.85;2.28;;;;;;;13.99;100.00;100089.75;2615798;31;20034;-56
2021/09/23 21:32:34;;;;;;;15.75;3.35;;;;;;;14.05;100.00;100109.47;2614453;36;20055;-51
2021/09/23 21:35:01;;;;;;;8.90;2.08;;;;;;;14.00;100.00;100086.31;2614895;36;20139;-54
2021/09/23 21:37:29;;;;;;;12.40;2.05;;;;;;;13.94;100.00;100064.00;2615274;36;20041;-47
2021/09/23 21:39:56;;;;;;;8.70;2.42;;;;;;;13.87;100.00;100067.44;2616005;31;20035;-53
2021/09/23 21:42:24;;;;;;;9.18;1.90;;;;;;;13.90;100.00;100082.00;2615703;31;20029;-50
2021/09/23 21:44:51;;;;;;;11.10;2.95;;;;;;;13.98;100.00;100096.59;2617577;31;20041;-50
2021/09/23 21:47:18;;;;;;;9.82;2.38;;;;;;;14.02;100.00;100118.94;2615535;36;20030;-52
2021/09/23 21:49:45;;;;;;;12.13;2.17;;;;;;;14.04;100.00;100103.47;2616528;31;20038;-54